Time;durP1;ratioP1;P1;durP2;ratioP2;P2;SDS_P1;SDS_P2;PMS_P1;PMS_P2;Temp;Humidity;BMP_temperature;BMP_pressure;BME280_temperature;BME280_humidity;BME280_pressure;Samples;Min_cycle;Max_cycle;Signal;HPM_P1;HPM_P2
2022/04/23 00:00:29;;;;;;;28.10;15.60;;;;;;;7.11;72.62;98108.52;107554;1279;97166;-67
2022/04/23 00:03:06;;;;;;;25.50;14.30;;;;;;;7.10;72.54;98100.13;107153;1277;107967;-66
2022/04/23 00:05:35;;;;;;;28.30;15.30;;;;;;;7.09;72.54;98098.27;105909;1277;99920;-66
2022/04/23 00:08:05;;;;;;;26.20;15.10;;;;;;;7.07;72.45;98100.83;105919;1277;99323;-64
2022/04/23 00:10:35;;;;;;;26.50;14.00;;;;;;;7.07;72.49;98096.27;105905;1277;113310;-65
2022/04/23 00:13:07;;;;;;;26.60;15.20;;;;;;;7.06;72.71;98093.02;105977;1277;99215;-65
2022/04/23 00:15:38;;;;;;;27.50;15.20;;;;;;;7.05;72.34;98092.02;105968;1277;107821;-65
2022/04/23 00:18:10;;;;;;;26.60;15.00;;;;;;;7.02;72.68;98087.99;105928;1279;99242;-66
2022/04/23 00:20:39;;;;;;;26.20;14.80;;;;;;;6.99;72.64;98087.84;105914;1277;99243;-67
2022/04/23 00:23:08;;;;;;;24.70;12.90;;;;;;;6.99;72.50;98085.92;105797;1278;113658;-67
2022/04/23 00:25:38;;;;;;;26.10;14.20;;;;;;;6.97;72.58;98082.20;105752;1277;99261;-67
2022/04/23 00:28:09;;;;;;;25.80;14.50;;;;;;;6.94;72.62;98088.23;105900;1277;108282;-66
2022/04/23 00:30:38;;;;;;;26.80;13.30;;;;;;;6.93;72.59;98092.40;105951;1277;99352;-67
2022/04/23 00:33:09;;;;;;;24.10;13.00;;;;;;;6.91;72.61;98096.58;105945;1277;99297;-67
2022/04/23 00:35:39;;;;;;;25.90;14.00;;;;;;;6.90;72.73;98090.69;105960;1277;113253;-68
2022/04/23 00:38:08;;;;;;;23.60;13.70;;;;;;;6.87;72.44;98083.65;105903;1277;98350;-68
2022/04/23 00:40:41;;;;;;;25.70;13.20;;;;;;;6.85;72.40;98084.65;105799;1277;108284;-67
2022/04/23 00:43:33;;;;;;;23.90;12.80;;;;;;;6.83;72.54;98085.31;105830;1277;99371;-67
2022/04/23 00:46:03;;;;;;;25.90;12.90;;;;;;;6.79;72.48;98096.54;105822;1277;99358;-66
2022/04/23 00:48:32;;;;;;;24.20;12.80;;;;;;;6.77;72.44;98100.37;105823;1279;112366;-67
2022/04/23 00:51:03;;;;;;;25.40;12.90;;;;;;;6.75;72.55;98105.08;105845;1277;98333;-66
2022/04/23 00:53:33;;;;;;;24.10;12.50;;;;;;;6.75;72.36;98107.05;105821;1278;108163;-67
2022/04/23 00:56:01;;;;;;;26.10;13.30;;;;;;;6.73;72.54;98107.17;105849;1277;98388;-68
2022/04/23 00:58:31;;;;;;;25.50;13.10;;;;;;;6.72;72.47;98106.20;105866;1279;99228;-66
2022/04/23 01:00:59;;;;;;;26.10;14.00;;;;;;;6.72;72.45;98105.37;105910;1277;113355;-66
2022/04/23 01:03:28;;;;;;;25.00;13.90;;;;;;;6.71;72.45;98109.61;105852;1277;99382;-67
2022/04/23 01:05:58;;;;;;;23.40;12.80;;;;;;;6.70;72.36;98109.85;105962;1277;107792;-67
2022/04/23 01:08:27;;;;;;;24.80;12.70;;;;;;;6.68;72.57;98114.27;105871;1277;99266;-67
2022/04/23 01:10:56;;;;;;;24.90;12.60;;;;;;;6.66;72.54;98112.63;105870;1278;99230;-66
2022/04/23 01:13:25;;;;;;;24.80;13.30;;;;;;;6.63;72.53;98105.95;105876;1277;113367;-67
2022/04/23 01:16:07;;;;;;;25.20;13.30;;;;;;;6.63;72.43;98107.92;105959;1278;99250;-67
2022/04/23 01:18:41;;;;;;;24.50;12.90;;;;;;;6.63;72.47;98104.20;105879;1278;107509;-66
2022/04/23 01:21:10;;;;;;;24.90;13.10;;;;;;;6.63;72.41;98102.79;105869;1279;99381;-67
2022/04/23 01:23:42;;;;;;;26.10;13.50;;;;;;;6.63;72.59;98097.48;105954;1278;99214;-65
2022/04/23 01:26:11;;;;;;;27.10;13.90;;;;;;;6.63;72.47;98092.21;105877;1277;113262;-67
2022/04/23 01:28:40;;;;;;;25.30;13.20;;;;;;;6.62;72.61;98091.77;105883;1277;96560;-66
2022/04/23 01:31:09;;;;;;;25.40;12.90;;;;;;;6.61;72.58;98088.29;105723;1278;107812;-67
2022/04/23 01:33:36;;;;;;;23.00;12.30;;;;;;;6.61;72.30;98089.77;105618;1278;99281;-67
2022/04/23 01:36:05;;;;;;;23.60;13.30;;;;;;;6.59;72.55;98086.56;105682;1277;96641;-66
2022/04/23 01:38:33;;;;;;;27.00;13.80;;;;;;;6.58;72.34;98086.44;106223;1277;112503;-65
2022/04/23 01:41:01;;;;;;;25.20;13.40;;;;;;;6.57;72.49;98082.05;105565;1277;97698;-66
2022/04/23 01:43:29;;;;;;;23.60;11.80;;;;;;;6.56;72.59;98085.30;105660;1277;108469;-69
2022/04/23 01:45:57;;;;;;;24.90;14.00;;;;;;;6.54;72.40;98081.39;105711;1277;99373;-67
2022/04/23 01:48:26;;;;;;;25.70;13.10;;;;;;;6.53;72.58;98081.66;105688;1277;99328;-68
2022/04/23 01:50:55;;;;;;;25.10;13.90;;;;;;;6.52;72.68;98083.48;105629;1278;113335;-64
2022/04/23 01:53:25;;;;;;;26.60;14.60;;;;;;;6.52;72.37;98084.02;106627;1277;99233;-65
2022/04/23 01:55:55;;;;;;;24.80;13.10;;;;;;;6.52;72.56;98080.00;105599;1278;108417;-65
2022/04/23 01:58:25;;;;;;;25.20;13.60;;;;;;;6.52;72.71;98080.14;105609;1278;99305;-65
2022/04/23 02:00:54;;;;;;;25.80;14.00;;;;;;;6.51;72.54;98082.83;107544;1278;97253;-67
2022/04/23 02:03:22;;;;;;;24.10;13.00;;;;;;;6.51;72.45;98084.83;106417;1277;112606;-66
2022/04/23 02:05:52;;;;;;;27.00;13.70;;;;;;;6.50;72.41;98082.40;105849;1277;100070;-64
2022/04/23 02:08:21;;;;;;;24.90;13.40;;;;;;;6.50;72.51;98081.86;105776;1277;108409;-67
2022/04/23 02:10:49;;;;;;;25.40;13.60;;;;;;;6.49;72.44;98080.17;105881;1277;99345;-67
2022/04/23 02:13:18;;;;;;;24.90;13.20;;;;;;;6.48;72.42;98086.79;105943;1277;99196;-68
2022/04/23 02:15:47;;;;;;;25.20;13.20;;;;;;;6.46;72.39;98089.54;105887;1279;111433;-65
2022/04/23 02:18:16;;;;;;;23.80;13.30;;;;;;;6.44;72.31;98088.64;105823;1277;99257;-64
2022/04/23 02:20:45;;;;;;;24.20;13.30;;;;;;;6.41;72.45;98098.34;105748;1279;108386;-65
2022/04/23 02:23:13;;;;;;;24.70;13.10;;;;;;;6.37;72.31;98100.60;105836;1277;99327;-65
2022/04/23 02:25:42;;;;;;;25.00;12.70;;;;;;;6.34;72.45;98106.57;105742;1278;99220;-65
2022/04/23 02:28:12;;;;;;;25.60;13.30;;;;;;;6.31;72.44;98108.92;105825;1277;113488;-67
2022/04/23 02:30:41;;;;;;;26.20;13.30;;;;;;;6.29;72.52;98108.73;105791;1278;97730;-66
2022/04/23 02:33:10;;;;;;;25.10;13.50;;;;;;;6.25;72.41;98109.33;105799;1277;108410;-65
2022/04/23 02:35:39;;;;;;;23.20;12.50;;;;;;;6.23;72.45;98100.66;105920;1277;99337;-65
2022/04/23 02:38:09;;;;;;;24.10;13.30;;;;;;;6.20;72.50;98104.91;105953;1278;96536;-66
2022/04/23 02:40:39;;;;;;;24.60;13.10;;;;;;;6.16;72.46;98102.73;105882;1277;113502;-66
2022/04/23 02:43:08;;;;;;;25.20;13.10;;;;;;;6.12;72.46;98101.09;105947;1278;99091;-65
2022/04/23 02:45:37;;;;;;;26.20;13.80;;;;;;;6.08;72.49;98100.81;105814;1279;108430;-64
2022/04/23 02:48:06;;;;;;;25.50;13.90;;;;;;;6.06;72.45;98101.52;105906;1277;99317;-63
2022/04/23 02:50:38;;;;;;;32.80;15.30;;;;;;;6.03;72.57;98101.37;105939;1277;99297;-64
2022/04/23 02:53:08;;;;;;;26.60;14.20;;;;;;;6.00;72.43;98101.57;105774;1279;112665;-66
2022/04/23 02:55:40;;;;;;;27.30;14.30;;;;;;;5.96;72.49;98097.59;105826;1277;99315;-67
2022/04/23 02:58:10;;;;;;;24.40;13.70;;;;;;;5.93;72.45;98092.88;105766;1278;108259;-67
2022/04/23 03:00:42;;;;;;;25.20;12.70;;;;;;;5.88;72.40;98090.58;105828;1277;99243;-66
2022/04/23 03:03:12;;;;;;;25.90;13.80;;;;;;;5.84;72.35;98087.17;105958;1277;99380;-64
2022/04/23 03:05:42;;;;;;;26.70;13.60;;;;;;;5.79;72.43;98091.49;105927;1278;112852;-66
2022/04/23 03:08:13;;;;;;;26.40;14.00;;;;;;;5.77;72.54;98095.51;105912;1277;97046;-67
2022/04/23 03:10:42;;;;;;;27.10;14.50;;;;;;;5.74;72.45;98094.52;105860;1277;107759;-68
2022/04/23 03:13:10;;;;;;;27.90;14.50;;;;;;;5.71;72.38;98093.84;105897;1277;99263;-67
2022/04/23 03:15:38;;;;;;;25.50;14.60;;;;;;;5.68;72.40;98093.67;105880;1277;99214;-66
2022/04/23 03:18:11;;;;;;;27.10;14.70;;;;;;;5.65;72.41;98087.52;105763;1277;113416;-66
2022/04/23 03:20:41;;;;;;;30.60;16.90;;;;;;;5.63;72.42;98094.41;105832;1278;97773;-66
2022/04/23 03:23:09;;;;;;;30.80;16.30;;;;;;;5.59;72.28;98099.87;105786;1277;107623;-65
2022/04/23 03:25:47;;;;;;;30.40;17.90;;;;;;;5.58;72.25;98098.93;102778;1309;636227;-65
2022/04/23 03:28:17;;;;;;;26.60;14.40;;;;;;;5.52;72.28;98101.59;105122;1286;93926;-66
2022/04/23 03:30:47;;;;;;;25.90;14.20;;;;;;;5.48;72.31;98100.86;105152;1286;93929;-66
2022/04/23 03:33:17;;;;;;;28.60;16.80;;;;;;;5.44;72.26;98101.79;105108;1285;107947;-66
2022/04/23 03:35:46;;;;;;;28.20;15.60;;;;;;;5.42;72.37;98108.92;104918;1286;93843;-65
2022/04/23 03:38:16;;;;;;;29.00;16.80;;;;;;;5.42;72.42;98113.85;104810;1286;468902;-66
2022/04/23 03:40:48;;;;;;;28.60;15.80;;;;;;;5.42;72.45;98115.29;105274;1284;94300;-67
2022/04/23 03:43:16;;;;;;;27.70;16.10;;;;;;;5.42;72.38;98120.59;105437;1283;94331;-66
2022/04/23 03:45:44;;;;;;;27.30;16.60;;;;;;;5.41;72.48;98121.86;105281;1283;107998;-67
2022/04/23 03:48:14;;;;;;;28.60;16.70;;;;;;;5.42;72.54;98120.45;105613;1283;94354;-66
2022/04/23 03:50:43;;;;;;;30.70;17.60;;;;;;;5.42;72.50;98120.77;105374;1283;108816;-66
2022/04/23 03:53:12;;;;;;;27.00;15.20;;;;;;;5.42;72.49;98117.75;105379;1282;95313;-65
2022/04/23 03:55:41;;;;;;;26.20;14.50;;;;;;;5.43;72.48;98116.80;105483;1283;95690;-67
2022/04/23 03:58:09;;;;;;;29.90;16.20;;;;;;;5.43;72.51;98117.84;105425;1283;108654;-65
2022/04/23 04:00:37;;;;;;;28.70;16.10;;;;;;;5.44;72.51;98114.83;105440;1283;95233;-67
2022/04/23 04:03:05;;;;;;;28.80;16.60;;;;;;;5.44;72.55;98113.38;105382;1283;108347;-67
2022/04/23 04:05:34;;;;;;;27.40;15.80;;;;;;;5.45;72.47;98112.81;105418;1283;95071;-67
2022/04/23 04:08:03;;;;;;;28.70;16.20;;;;;;;5.46;72.36;98109.60;105407;1282;95186;-66
2022/04/23 04:10:32;;;;;;;31.10;17.90;;;;;;;5.46;72.55;98110.11;105574;1282;109312;-67
2022/04/23 04:13:02;;;;;;;30.00;16.80;;;;;;;5.46;72.42;98108.69;105548;1283;94918;-69
2022/04/23 04:15:31;;;;;;;27.70;15.80;;;;;;;5.48;72.56;98108.92;105391;1283;107001;-68
2022/04/23 04:18:02;;;;;;;28.90;16.70;;;;;;;5.50;72.53;98110.03;105376;1283;94323;-69
2022/04/23 04:20:32;;;;;;;29.40;15.60;;;;;;;5.52;72.57;98113.40;105409;1283;95314;-68
2022/04/23 04:23:01;;;;;;;28.10;16.10;;;;;;;5.54;72.48;98113.95;105339;1283;109349;-66
2022/04/23 04:25:29;;;;;;;29.10;18.00;;;;;;;5.56;72.52;98110.54;105237;1283;94303;-68
2022/04/23 04:28:02;;;;;;;29.30;16.80;;;;;;;5.55;72.50;98113.17;105397;1283;108336;-67
2022/04/23 04:31:46;;;;;;;29.70;15.80;;;;;;;5.57;72.69;98114.81;105343;1283;95285;-67
2022/04/23 04:33:20;;;;;;;28.30;16.20;;;;;;;5.58;72.55;98110.37;105488;1283;95191;-67
2022/04/23 04:35:49;;;;;;;29.30;17.50;;;;;;;5.61;72.52;98111.56;105269;1284;109455;-66
2022/04/23 04:38:23;;;;;;;30.70;18.50;;;;;;;5.64;72.56;98109.23;105419;1282;94334;-66
2022/04/23 04:40:52;;;;;;;30.60;18.60;;;;;;;5.68;72.36;98111.98;105369;1283;108346;-66
2022/04/23 04:43:22;;;;;;;30.50;19.50;;;;;;;5.70;72.52;98116.47;105476;1283;94899;-66
2022/04/23 04:45:51;;;;;;;33.00;19.30;;;;;;;5.72;72.59;98116.83;105485;1283;95173;-68
2022/04/23 04:48:19;;;;;;;32.00;19.50;;;;;;;5.76;72.60;98113.30;105351;1283;109381;-68
2022/04/23 04:50:48;;;;;;;36.70;21.10;;;;;;;5.82;72.65;98111.73;105328;1282;94347;-68
2022/04/23 04:53:16;;;;;;;36.00;20.70;;;;;;;5.87;72.67;98107.19;105255;1284;108463;-67
2022/04/23 04:55:44;;;;;;;34.10;19.80;;;;;;;5.91;72.63;98108.64;105328;1283;94296;-66
2022/04/23 04:58:12;;;;;;;30.30;17.40;;;;;;;5.95;72.71;98108.73;105381;1283;94798;-68
2022/04/23 05:00:40;;;;;;;29.60;16.30;;;;;;;6.00;72.71;98107.91;105439;1283;109269;-65
2022/04/23 05:03:09;;;;;;;29.50;16.50;;;;;;;6.05;72.81;98106.68;105505;1283;95309;-69
2022/04/23 05:05:39;;;;;;;26.00;14.50;;;;;;;6.09;72.76;98103.06;105296;1283;108280;-68
2022/04/23 05:08:07;;;;;;;27.00;15.40;;;;;;;6.13;72.69;98105.42;105554;1283;95185;-68
2022/04/23 05:10:35;;;;;;;25.20;13.80;;;;;;;6.16;72.64;98102.77;105587;1283;95321;-69
2022/04/23 05:13:03;;;;;;;27.30;14.00;;;;;;;6.20;72.60;98108.24;105613;1282;109404;-69
2022/04/23 05:15:31;;;;;;;28.80;14.70;;;;;;;6.26;72.72;98105.05;105481;1283;94361;-70
2022/04/23 05:17:59;;;;;;;29.10;15.30;;;;;;;6.32;72.71;98104.10;105341;1283;107368;-69
2022/04/23 05:20:27;;;;;;;25.60;15.10;;;;;;;6.37;72.64;98099.17;105297;1283;95749;-68
2022/04/23 05:22:54;;;;;;;26.20;13.90;;;;;;;6.42;72.67;98097.09;105410;1283;94733;-69
2022/04/23 05:25:22;;;;;;;42.40;15.70;;;;;;;6.46;72.53;98102.39;105484;1283;109361;-70
2022/04/23 05:27:50;;;;;;;26.00;14.10;;;;;;;6.52;72.68;98106.56;105290;1285;95186;-68
2022/04/23 05:30:18;;;;;;;27.30;15.00;;;;;;;6.56;72.49;98110.14;105443;1283;108186;-71
2022/04/23 05:32:46;;;;;;;26.10;14.20;;;;;;;6.60;72.74;98110.26;105547;1283;95288;-69
2022/04/23 05:35:14;;;;;;;27.30;14.00;;;;;;;6.61;72.63;98115.93;105431;1283;95173;-69
2022/04/23 05:37:44;;;;;;;26.40;13.70;;;;;;;6.64;72.47;98119.15;105555;1283;108781;-70
2022/04/23 05:40:15;;;;;;;27.80;13.90;;;;;;;6.66;72.56;98117.36;105429;1283;94226;-66
2022/04/23 05:42:43;;;;;;;25.70;13.80;;;;;;;6.68;72.64;98117.79;105658;1283;109102;-68
2022/04/23 05:45:11;;;;;;;25.60;13.80;;;;;;;6.69;72.46;98119.83;105470;1283;94235;-68
2022/04/23 05:47:42;;;;;;;23.40;13.30;;;;;;;6.67;72.65;98123.46;105255;1284;95165;-66
2022/04/23 05:50:10;;;;;;;22.80;12.40;;;;;;;6.66;72.55;98121.04;105251;1285;108286;-68
2022/04/23 05:52:39;;;;;;;24.60;13.40;;;;;;;6.68;72.62;98120.55;105419;1284;95178;-69
2022/04/23 05:55:09;;;;;;;25.80;13.60;;;;;;;6.69;72.47;98120.15;105345;1284;106716;-68
2022/04/23 05:57:38;;;;;;;23.40;13.00;;;;;;;6.70;72.45;98120.77;105456;1283;95212;-67
2022/04/23 06:00:09;;;;;;;24.80;13.40;;;;;;;6.72;72.46;98121.89;105390;1283;95349;-67
2022/04/23 06:02:37;;;;;;;22.40;12.90;;;;;;;6.73;72.48;98125.33;107057;1283;109120;-68
2022/04/23 06:05:06;;;;;;;24.90;12.70;;;;;;;6.74;72.45;98123.88;107076;1282;93143;-68
2022/04/23 06:07:34;;;;;;;23.40;12.90;;;;;;;6.77;72.31;98126.31;107028;1282;107772;-70
2022/04/23 06:10:03;;;;;;;26.00;14.60;;;;;;;6.84;72.64;98125.56;107029;1283;93216;-70
2022/04/23 06:12:31;;;;;;;23.40;11.70;;;;;;;6.91;72.36;98127.41;106966;1279;94261;-70
2022/04/23 06:15:01;;;;;;;22.80;12.30;;;;;;;6.98;72.37;98126.58;105784;1280;109143;-70
2022/04/23 06:17:30;;;;;;;26.50;15.10;;;;;;;7.05;72.41;98131.34;105982;1276;96834;-69
2022/04/23 06:20:00;;;;;;;27.50;16.60;;;;;;;7.10;72.39;98133.40;105909;1274;108397;-67
2022/04/23 06:22:28;;;;;;;25.30;14.20;;;;;;;7.13;72.47;98133.59;105871;1275;95273;-69
2022/04/23 06:24:56;;;;;;;27.50;15.20;;;;;;;7.14;72.31;98136.31;105841;1276;95167;-67
2022/04/23 06:27:25;;;;;;;25.50;14.00;;;;;;;7.17;72.22;98137.00;105765;1276;109754;-73
2022/04/23 06:29:53;;;;;;;27.40;15.00;;;;;;;7.20;72.28;98134.85;105866;1275;95286;-70
2022/04/23 06:32:22;;;;;;;25.10;13.40;;;;;;;7.29;72.36;98136.13;106063;1271;107541;-65
2022/04/23 06:34:50;;;;;;;24.10;12.50;;;;;;;7.37;72.22;98133.75;106215;1270;95226;-65
2022/04/23 06:37:21;;;;;;;26.60;13.20;;;;;;;7.39;72.35;98131.67;106272;1270;95232;-62
2022/04/23 06:39:51;;;;;;;25.10;13.90;;;;;;;7.46;72.12;98132.39;106116;1270;109332;-64
2022/04/23 06:42:20;;;;;;;24.90;13.60;;;;;;;7.53;72.14;98138.00;106231;1273;95180;-67
2022/04/23 06:44:51;;;;;;;25.70;14.30;;;;;;;7.60;72.31;98144.38;106173;1270;108019;-64
2022/04/23 06:47:20;;;;;;;26.00;14.40;;;;;;;7.67;72.55;98137.70;106100;1271;95271;-67
2022/04/23 06:49:48;;;;;;;26.50;14.80;;;;;;;7.75;72.52;98137.45;106102;1271;94345;-65
2022/04/23 06:52:16;;;;;;;24.10;12.30;;;;;;;7.85;72.51;98139.70;106131;1271;109437;-64
2022/04/23 06:54:44;;;;;;;21.40;11.30;;;;;;;7.95;72.59;98147.77;106145;1273;95219;-66
2022/04/23 06:57:12;;;;;;;23.30;11.60;;;;;;;8.04;72.44;98148.48;106060;1273;108122;-67
2022/04/23 06:59:40;;;;;;;22.50;12.00;;;;;;;8.15;72.40;98147.95;106113;1273;95155;-67
2022/04/23 07:02:09;;;;;;;22.80;10.60;;;;;;;8.26;72.36;98148.56;106139;1271;95757;-67
2022/04/23 07:04:40;;;;;;;19.90;9.60;;;;;;;8.38;72.14;98143.40;106201;1270;108785;-67
2022/04/23 07:07:11;;;;;;;18.50;9.40;;;;;;;8.54;72.17;98140.04;106164;1270;94325;-65
2022/04/23 07:09:39;;;;;;;17.60;8.90;;;;;;;8.73;72.12;98137.16;106343;1270;107391;-66
2022/04/23 07:12:13;;;;;;;18.40;8.90;;;;;;;9.05;71.92;98144.86;106202;1271;94359;-69
2022/04/23 07:14:41;;;;;;;18.30;8.90;;;;;;;9.52;71.54;98143.84;106171;1271;95175;-68
2022/04/23 07:17:11;;;;;;;16.10;8.20;;;;;;;9.98;71.50;98141.64;106039;1271;109315;-66
2022/04/23 07:19:40;;;;;;;17.80;8.40;;;;;;;10.40;71.36;98137.92;106164;1271;95730;-66
2022/04/23 07:22:12;;;;;;;16.10;7.40;;;;;;;10.64;71.54;98135.65;106186;1270;107186;-65
2022/04/23 07:24:39;;;;;;;13.50;6.50;;;;;;;10.84;71.72;98133.06;106060;1270;95163;-67
2022/04/23 07:27:11;;;;;;;16.10;7.50;;;;;;;10.97;71.72;98129.27;106102;1273;95720;-66
2022/04/23 07:29:42;;;;;;;14.30;7.60;;;;;;;11.23;71.60;98132.76;106138;1270;109136;-65
2022/04/23 07:32:10;;;;;;;14.20;6.60;;;;;;;11.27;71.52;98128.65;106137;1270;95167;-67
2022/04/23 07:37:30;;;;;;;12.40;6.30;;;;;;;11.80;70.57;98127.23;106075;1273;95226;-66
2022/04/23 07:40:10;;;;;;;12.30;6.10;;;;;;;12.02;70.84;98129.16;106227;1271;94259;-68
2022/04/23 07:42:38;;;;;;;15.70;7.50;;;;;;;12.17;70.93;98123.30;106087;1271;110015;-68
2022/04/23 07:45:06;;;;;;;14.90;6.50;;;;;;;12.29;71.15;98122.20;106045;1270;96519;-67
2022/04/23 07:47:34;;;;;;;16.80;7.70;;;;;;;12.42;71.16;98116.36;106005;1271;107697;-69
2022/04/23 07:50:04;;;;;;;13.10;5.90;;;;;;;12.34;71.24;98120.80;106068;1270;95344;-67
2022/04/23 07:52:35;;;;;;;10.70;5.10;;;;;;;12.31;71.07;98121.63;106052;1270;95633;-67
2022/04/23 07:55:06;;;;;;;15.90;6.80;;;;;;;12.31;70.83;98118.65;106048;1271;110708;-69
2022/04/23 07:57:35;;;;;;;18.20;7.30;;;;;;;12.32;70.86;98122.77;106098;1270;94233;-67
2022/04/23 08:00:08;;;;;;;13.60;6.70;;;;;;;12.26;70.98;98122.15;106113;1270;107436;-68
2022/04/23 08:02:35;;;;;;;14.60;7.00;;;;;;;12.11;70.59;98122.11;106034;1272;95062;-67
2022/04/23 08:05:05;;;;;;;18.90;8.30;;;;;;;11.96;70.80;98119.91;106030;1273;96517;-68
2022/04/23 08:07:34;;;;;;;16.60;8.10;;;;;;;11.84;70.91;98121.85;106035;1271;110722;-70
2022/04/23 08:10:02;;;;;;;17.90;8.20;;;;;;;11.74;70.84;98118.56;106193;1273;97079;-71
2022/04/23 08:12:30;;;;;;;14.50;7.20;;;;;;;11.66;70.75;98125.50;106190;1273;107745;-69
2022/04/23 08:14:58;;;;;;;15.00;7.60;;;;;;;11.57;70.67;98123.50;106150;1271;96609;-68
2022/04/23 08:17:26;;;;;;;14.20;6.80;;;;;;;11.48;70.56;98122.88;106186;1273;94912;-70
2022/04/23 08:19:54;;;;;;;17.10;7.40;;;;;;;11.40;70.56;98123.39;106110;1271;110999;-69
2022/04/23 08:22:24;;;;;;;21.00;8.20;;;;;;;11.33;70.47;98121.34;106158;1273;96512;-68
2022/04/23 08:24:52;;;;;;;20.40;9.00;;;;;;;11.22;70.46;98122.00;106046;1270;109570;-69
2022/04/23 08:27:21;;;;;;;18.30;8.20;;;;;;;11.07;70.00;98125.11;106028;1270;96535;-69
2022/04/23 08:32:39;;;;;;;17.40;8.40;;;;;;;10.82;69.93;98119.88;106102;1271;110560;-68
2022/04/23 08:35:10;;;;;;;18.90;9.10;;;;;;;10.69;69.72;98118.92;106169;1270;96537;-66
2022/04/23 08:37:38;;;;;;;16.10;7.70;;;;;;;10.49;69.70;98120.42;106116;1270;108291;-69
2022/04/23 08:40:12;;;;;;;20.20;8.70;;;;;;;10.35;69.84;98125.05;106039;1270;96580;-70
2022/04/23 08:42:40;;;;;;;18.00;8.80;;;;;;;10.30;69.89;98124.71;106057;1270;96664;-69
2022/04/23 08:45:12;;;;;;;17.90;8.40;;;;;;;10.25;69.65;98123.54;105970;1270;110547;-72
2022/04/23 08:47:51;;;;;;;18.60;8.80;;;;;;;10.11;69.37;98124.09;106038;1270;96997;-70
2022/04/23 08:50:22;;;;;;;19.00;9.10;;;;;;;9.95;69.39;98120.10;106050;1270;107819;-69
2022/04/23 08:52:55;;;;;;;19.60;9.60;;;;;;;9.90;69.50;98119.45;106209;1270;96598;-69
2022/04/23 08:55:27;;;;;;;19.60;9.40;;;;;;;9.86;69.47;98119.92;106186;1270;96598;-68
2022/04/23 08:57:56;;;;;;;20.40;10.40;;;;;;;9.81;69.32;98119.30;106238;1270;110581;-69
2022/04/23 09:00:25;;;;;;;18.40;9.10;;;;;;;9.76;69.20;98116.91;106122;1271;97120;-67
2022/04/23 09:02:56;;;;;;;18.40;8.80;;;;;;;9.71;69.26;98120.52;106169;1271;108370;-66
2022/04/23 09:05:27;;;;;;;20.00;9.40;;;;;;;9.66;69.24;98122.73;106167;1270;96523;-68
2022/04/23 09:07:58;;;;;;;20.70;9.50;;;;;;;9.62;69.20;98125.67;106095;1271;96517;-68
2022/04/23 09:10:48;;;;;;;17.60;8.80;;;;;;;9.54;69.05;98123.66;106060;1272;110811;-68
2022/04/23 09:13:31;;;;;;;18.60;9.40;;;;;;;9.49;69.20;98125.48;106073;1270;96535;-69
2022/04/23 09:24:47;;;;;;;21.00;10.30;;;;;;;9.42;68.92;98128.04;106113;1270;110670;-67
2022/04/23 09:27:19;;;;;;;19.60;9.50;;;;;;;9.41;68.80;98123.58;106030;1270;96494;-68
2022/04/23 09:29:59;;;;;;;22.80;10.90;;;;;;;9.43;68.83;98124.46;107324;1270;107754;-69
2022/04/23 09:32:27;;;;;;;20.60;9.50;;;;;;;9.44;68.83;98126.09;106085;1273;95291;-68
2022/04/23 09:35:10;;;;;;;21.10;10.10;;;;;;;9.44;68.75;98127.70;105966;1270;96578;-68
2022/04/23 09:40:29;;;;;;;19.50;10.40;;;;;;;9.42;68.73;98127.34;106158;1271;96538;-68
2022/04/23 09:42:58;;;;;;;20.70;10.10;;;;;;;9.45;68.70;98125.51;106155;1273;108476;-68
2022/04/23 09:45:29;;;;;;;19.50;9.80;;;;;;;9.50;68.71;98129.54;106046;1271;96571;-68
2022/04/23 09:48:15;;;;;;;19.20;9.70;;;;;;;9.53;68.65;98131.36;106049;1271;96573;-67
2022/04/23 09:50:48;;;;;;;19.90;9.80;;;;;;;9.56;68.60;98129.22;106003;1271;110735;-69
2022/04/23 09:53:19;;;;;;;20.30;10.50;;;;;;;9.57;68.45;98131.09;106052;1273;95036;-70
2022/04/23 09:55:50;;;;;;;21.20;11.40;;;;;;;9.59;68.55;98131.95;106001;1271;108551;-68
2022/04/23 09:58:19;;;;;;;21.50;11.90;;;;;;;9.60;68.52;98131.66;106134;1270;96521;-69
2022/04/23 18:39:18;;;;;;;32.90;19.70;;;;;;;9.90;61.65;98169.03;106071;1262;96571;-69
2022/04/23 18:41:47;;;;;;;36.00;21.40;;;;;;;9.86;61.53;98169.41;107901;1274;106715;-66
2022/04/23 18:44:15;;;;;;;33.00;19.70;;;;;;;9.81;61.52;98169.81;107862;1274;94620;-67
2022/04/23 18:46:44;;;;;;;34.70;20.10;;;;;;;9.76;61.56;98170.00;106943;1272;94548;-67
2022/04/23 18:49:12;;;;;;;32.10;19.50;;;;;;;9.72;61.54;98166.12;107360;1272;111189;-67
2022/04/23 18:51:41;;;;;;;31.10;18.70;;;;;;;9.68;61.53;98166.63;106048;1274;96574;-70
2022/04/23 18:54:09;;;;;;;33.10;19.80;;;;;;;9.65;61.53;98163.31;106052;1271;107730;-69
2022/04/23 18:56:39;;;;;;;33.80;20.40;;;;;;;9.62;61.48;98164.98;106020;1274;94268;-68
2022/04/23 18:59:07;;;;;;;40.50;24.40;;;;;;;9.57;61.55;98164.51;106037;1274;96510;-67
2022/04/23 19:01:35;;;;;;;53.50;33.40;;;;;;;9.50;61.47;98166.64;106056;1274;110042;-70
2022/04/23 19:04:04;;;;;;;49.60;30.00;;;;;;;9.45;61.51;98167.11;106118;1274;96532;-68
2022/04/23 19:06:37;;;;;;;42.70;25.50;;;;;;;9.40;61.56;98167.11;106062;1274;107899;-68
2022/04/23 19:09:06;;;;;;;39.60;23.20;;;;;;;9.36;61.57;98166.38;106096;1274;96499;-67
2022/04/23 19:11:36;;;;;;;37.50;21.10;;;;;;;9.33;61.56;98165.64;106152;1274;96592;-69
2022/04/23 19:14:07;;;;;;;35.70;20.90;;;;;;;9.28;61.53;98167.56;106180;1274;110566;-68
2022/04/23 19:16:36;;;;;;;34.00;19.70;;;;;;;9.26;61.56;98171.09;106228;1274;96622;-69
2022/04/23 19:19:06;;;;;;;36.70;20.00;;;;;;;9.22;61.51;98171.27;106155;1274;106699;-67
2022/04/23 19:29:56;;;;;;;31.40;17.80;;;;;;;9.11;61.60;98173.07;106073;1273;94731;-69
2022/04/23 19:32:25;;;;;;;33.50;19.70;;;;;;;9.10;61.58;98172.92;106197;1274;108062;-68
2022/04/23 19:34:53;;;;;;;33.90;20.10;;;;;;;9.08;61.59;98168.98;106158;1274;96635;-69
2022/04/23 19:37:21;;;;;;;35.00;20.00;;;;;;;9.06;61.54;98162.64;106211;1271;96514;-68
2022/04/23 19:39:49;;;;;;;33.70;19.00;;;;;;;9.03;61.57;98160.42;106078;1274;110703;-69
2022/04/23 19:42:20;;;;;;;32.90;18.30;;;;;;;8.99;61.55;98161.09;106042;1274;96384;-68
2022/04/23 19:44:52;;;;;;;33.00;18.50;;;;;;;8.93;61.50;98156.59;106005;1274;107810;-68
2022/04/23 19:47:21;;;;;;;35.20;18.80;;;;;;;8.89;61.62;98155.15;106021;1274;96584;-71
2022/04/23 19:49:51;;;;;;;34.30;18.40;;;;;;;8.86;61.62;98155.20;106081;1274;97627;-71
2022/04/23 19:52:19;;;;;;;35.70;17.70;;;;;;;8.81;61.49;98151.04;106092;1274;110116;-67
2022/04/23 19:54:47;;;;;;;31.40;18.40;;;;;;;8.76;61.56;98151.38;106096;1273;96559;-69
2022/04/23 19:57:19;;;;;;;31.20;17.60;;;;;;;8.73;61.53;98148.33;106144;1271;108202;-69
2022/04/23 19:59:47;;;;;;;31.30;17.00;;;;;;;8.71;61.58;98145.13;106060;1273;96538;-69
2022/04/23 20:02:15;;;;;;;29.00;16.10;;;;;;;8.68;61.62;98144.06;105980;1274;96630;-66
2022/04/23 20:04:43;;;;;;;31.60;18.00;;;;;;;8.66;61.64;98143.38;106100;1274;110692;-66
2022/04/23 20:07:11;;;;;;;32.60;18.10;;;;;;;8.62;61.58;98141.55;106028;1274;96409;-63
2022/04/23 20:09:44;;;;;;;33.80;19.60;;;;;;;8.59;61.52;98141.11;106051;1273;108176;-64
2022/04/23 20:12:13;;;;;;;35.80;21.80;;;;;;;8.55;61.68;98138.00;106034;1274;96567;-64
2022/04/23 20:14:41;;;;;;;35.60;21.20;;;;;;;8.53;61.61;98140.38;106094;1274;96525;-64
2022/04/23 20:17:10;;;;;;;37.20;20.10;;;;;;;8.50;61.47;98140.58;106004;1274;110673;-66
2022/04/23 20:19:39;;;;;;;34.00;19.30;;;;;;;8.46;61.51;98138.20;106099;1274;96635;-65
2022/04/23 20:22:07;;;;;;;35.50;20.40;;;;;;;8.43;61.51;98138.20;106075;1274;107208;-66
2022/04/23 20:24:38;;;;;;;33.60;20.30;;;;;;;8.40;61.59;98140.28;106037;1274;96530;-64
2022/04/23 20:27:07;;;;;;;36.40;19.40;;;;;;;8.35;61.41;98140.43;106027;1274;95047;-66
2022/04/23 20:29:36;;;;;;;34.20;18.70;;;;;;;8.32;61.68;98140.29;106057;1274;110146;-68